createdAt,value
2018-07-31T00:02:23.102Z,30.81
2018-07-31T00:04:49.132Z,30.94
2018-07-31T00:07:15.126Z,31.10
2018-07-31T00:09:41.086Z,31.12
2018-07-31T00:12:07.163Z,31.19
2018-07-31T00:14:33.194Z,31.30
2018-07-31T00:16:59.222Z,31.35
2018-07-31T00:19:25.287Z,31.37
2018-07-31T00:21:51.339Z,31.29
2018-07-31T00:24:18.080Z,31.21
2018-07-31T00:26:44.778Z,31.30
2018-07-31T00:29:11.316Z,31.20
2018-07-31T00:31:37.302Z,30.34
2018-07-31T00:34:03.252Z,29.88
2018-07-31T00:36:29.225Z,29.75
2018-07-31T00:38:55.227Z,29.85
2018-07-31T00:41:21.222Z,30.24
2018-07-31T00:43:47.220Z,30.38
2018-07-31T00:46:13.227Z,30.43
2018-07-31T00:48:39.263Z,30.58
2018-07-31T00:51:05.273Z,30.23
2018-07-31T00:53:31.237Z,30.20
2018-07-31T00:55:57.279Z,30.49
2018-07-31T00:58:23.318Z,30.59
2018-07-31T01:00:49.290Z,30.32
2018-07-31T01:03:15.290Z,30.41
2018-07-31T01:05:41.291Z,30.42
2018-07-31T01:08:07.355Z,30.67
2018-07-31T01:10:34.429Z,30.49
2018-07-31T01:13:00.422Z,30.35
2018-07-31T01:15:26.464Z,30.11
2018-07-31T01:17:52.477Z,29.59
2018-07-31T01:20:18.541Z,29.47
2018-07-31T01:22:44.549Z,29.22
2018-07-31T01:25:10.626Z,29.15
2018-07-31T01:27:36.666Z,29.12
2018-07-31T01:30:03.295Z,29.27
2018-07-31T01:32:29.329Z,29.14
2018-07-31T01:34:55.382Z,29.41
2018-07-31T01:37:21.383Z,29.46
2018-07-31T01:39:47.424Z,29.39
2018-07-31T01:42:13.421Z,29.35
2018-07-31T01:44:39.737Z,29.24
2018-07-31T01:47:05.790Z,29.02
2018-07-31T01:49:31.756Z,29.32
2018-07-31T01:51:57.725Z,29.96
2018-07-31T01:54:23.717Z,30.30
2018-07-31T01:56:49.711Z,29.89
2018-07-31T01:59:15.692Z,30.20
2018-07-31T02:01:41.658Z,30.25
2018-07-31T02:04:07.640Z,30.41
2018-07-31T02:06:33.598Z,30.23
2018-07-31T02:08:59.572Z,30.18
2018-07-31T02:11:25.566Z,30.10
2018-07-31T02:13:51.574Z,29.62
2018-07-31T02:16:17.624Z,29.70
2018-07-31T02:18:43.647Z,30.08
2018-07-31T02:21:09.629Z,30.36
2018-07-31T02:23:35.634Z,30.25
2018-07-31T02:26:01.698Z,30.17
2018-07-31T02:28:27.794Z,30.14
2018-07-31T02:30:53.754Z,29.63
2018-07-31T02:33:19.745Z,29.69
2018-07-31T02:35:45.723Z,29.49
2018-07-31T02:38:11.701Z,29.44
2018-07-31T02:40:37.739Z,29.59
2018-07-31T02:43:03.748Z,29.20
2018-07-31T02:45:29.709Z,29.22
2018-07-31T02:47:55.714Z,29.02
2018-07-31T02:50:21.685Z,28.86
2018-07-31T02:52:47.709Z,28.68
2018-07-31T02:55:13.742Z,28.58
2018-07-31T02:57:39.722Z,28.85
2018-07-31T03:00:05.706Z,29.02
2018-07-31T03:02:31.666Z,29.35
2018-07-31T03:04:57.639Z,29.75
2018-07-31T03:07:23.648Z,29.54
2018-07-31T03:09:49.620Z,29.65
2018-07-31T03:12:15.640Z,30.01
2018-07-31T03:14:41.612Z,29.77
2018-07-31T03:17:08.898Z,29.62
2018-07-31T03:19:34.952Z,29.48
2018-07-31T03:22:00.991Z,29.28
2018-07-31T03:24:26.982Z,29.17
2018-07-31T03:26:52.965Z,29.10
2018-07-31T03:29:18.997Z,28.92
2018-07-31T03:31:44.960Z,28.59
2018-07-31T03:34:11.013Z,28.56
2018-07-31T03:36:37.019Z,28.35
2018-07-31T03:39:03.045Z,28.26
2018-07-31T03:41:29.040Z,28.06
2018-07-31T03:43:55.019Z,28.07
2018-07-31T03:46:21.007Z,28.12
2018-07-31T03:48:47.010Z,28.12
2018-07-31T03:51:13.042Z,28.26
2018-07-31T03:53:39.016Z,28.22
2018-07-31T03:56:05.016Z,28.75
2018-07-31T03:58:30.982Z,28.84
2018-07-31T04:00:56.957Z,28.61
2018-07-31T04:03:22.945Z,28.53
2018-07-31T04:05:50.577Z,28.50
2018-07-31T04:08:16.566Z,28.74
2018-07-31T04:10:42.514Z,28.65
2018-07-31T04:13:08.468Z,28.49
2018-07-31T04:15:34.456Z,28.23
2018-07-31T04:18:00.513Z,28.40
2018-07-31T04:20:26.557Z,28.65
2018-07-31T04:22:53.436Z,28.57
2018-07-31T04:25:19.428Z,28.32
2018-07-31T04:27:45.364Z,27.99
2018-07-31T04:30:11.467Z,27.73
2018-07-31T04:32:37.576Z,28.10
2018-07-31T04:35:03.616Z,27.81
2018-07-31T04:37:29.665Z,28.02
2018-07-31T04:39:55.622Z,28.43
2018-07-31T04:42:21.593Z,28.50
2018-07-31T04:44:47.594Z,28.90
2018-07-31T04:47:13.573Z,29.27
2018-07-31T04:49:39.545Z,29.40
2018-07-31T04:52:05.565Z,29.61
2018-07-31T04:54:31.799Z,30.21
2018-07-31T04:56:57.816Z,30.41
2018-07-31T04:59:23.814Z,30.52
2018-07-31T05:01:49.799Z,30.54
2018-07-31T05:04:15.806Z,30.76
2018-07-31T05:06:41.774Z,30.83
2018-07-31T05:09:07.778Z,30.71
2018-07-31T05:11:33.756Z,30.97
2018-07-31T05:13:59.715Z,31.27
2018-07-31T05:16:25.767Z,31.53
2018-07-31T05:18:51.745Z,31.31
2018-07-31T05:21:17.800Z,31.24
2018-07-31T05:23:43.778Z,31.24
2018-07-31T05:26:09.794Z,31.33
2018-07-31T05:28:35.772Z,31.33
2018-07-31T05:31:01.775Z,31.70
2018-07-31T05:33:27.749Z,31.92
2018-07-31T05:35:53.731Z,32.14
2018-07-31T05:38:19.689Z,32.20
2018-07-31T05:40:45.663Z,31.91
2018-07-31T05:43:11.620Z,31.98
2018-07-31T05:45:38.348Z,32.10
2018-07-31T05:48:04.299Z,32.40
2018-07-31T05:50:30.268Z,32.78
2018-07-31T05:52:56.323Z,32.83
2018-07-31T05:55:22.294Z,32.92
2018-07-31T05:57:48.264Z,32.86
2018-07-31T06:00:14.244Z,33.14
2018-07-31T06:02:40.191Z,32.78
2018-07-31T06:05:06.209Z,32.20
2018-07-31T06:07:32.193Z,31.71
2018-07-31T06:09:58.140Z,31.73
2018-07-31T06:12:24.119Z,32.11
2018-07-31T06:14:50.093Z,32.56
2018-07-31T06:17:16.123Z,33.01
2018-07-31T06:19:42.099Z,33.50
2018-07-31T06:22:08.144Z,33.57
2018-07-31T06:24:34.173Z,32.99
2018-07-31T06:27:00.212Z,33.13
2018-07-31T06:29:26.134Z,33.38
2018-07-31T06:31:52.109Z,33.42
2018-07-31T06:34:18.861Z,33.68
2018-07-31T06:36:44.865Z,34.10
2018-07-31T06:39:10.853Z,34.61
2018-07-31T06:41:37.924Z,34.23
2018-07-31T06:44:03.947Z,34.27
2018-07-31T06:46:29.936Z,34.82
2018-07-31T06:48:55.928Z,34.23
2018-07-31T06:51:22.023Z,34.54
2018-07-31T07:01:23.754Z,36.41
2018-07-31T07:03:49.766Z,36.33
2018-07-31T07:06:15.810Z,36.14
2018-07-31T07:08:41.786Z,36.89
2018-07-31T07:11:07.877Z,36.86
2018-07-31T07:13:35.917Z,37.21
2018-07-31T07:16:06.222Z,37.57
2018-07-31T07:18:32.265Z,37.78
2018-07-31T07:20:58.283Z,38.03
2018-07-31T07:23:24.251Z,37.91
2018-07-31T07:25:50.261Z,38.31
2018-07-31T07:28:16.894Z,38.00
2018-07-31T07:30:42.944Z,38.38
2018-07-31T07:33:09.787Z,38.47
2018-07-31T07:35:36.609Z,38.71
2018-07-31T07:38:09.516Z,38.78
2018-07-31T07:40:35.582Z,38.28
2018-07-31T07:43:01.583Z,38.22
2018-07-31T07:45:27.627Z,38.69
2018-07-31T07:47:53.917Z,39.16
2018-07-31T07:50:19.986Z,39.13
2018-07-31T07:52:45.985Z,39.19
2018-07-31T07:55:12.171Z,39.65
2018-07-31T08:00:12.872Z,38.75
2018-07-31T08:02:38.875Z,39.16
2018-07-31T08:05:04.943Z,39.62
2018-07-31T08:07:30.934Z,40.06
2018-07-31T08:09:56.877Z,40.39
2018-07-31T08:12:22.860Z,40.55
2018-07-31T08:14:48.819Z,40.72
2018-07-31T08:17:14.808Z,40.78
2018-07-31T08:19:40.763Z,40.79
2018-07-31T08:22:06.764Z,40.77
2018-07-31T08:24:32.747Z,40.73
2018-07-31T08:26:58.740Z,40.75
2018-07-31T08:29:24.739Z,40.69
2018-07-31T08:31:50.794Z,40.62
2018-07-31T08:34:16.781Z,40.47
2018-07-31T08:36:42.739Z,39.96
2018-07-31T08:39:08.756Z,39.70
2018-07-31T08:41:34.701Z,39.39
2018-07-31T08:44:00.637Z,39.15
2018-07-31T08:46:26.606Z,38.95
2018-07-31T08:48:52.573Z,38.67
2018-07-31T08:51:18.608Z,38.27
2018-07-31T08:53:44.654Z,38.01
2018-07-31T08:56:10.624Z,37.80
2018-07-31T08:58:36.636Z,37.64
2018-07-31T09:01:02.595Z,37.49
2018-07-31T09:03:28.543Z,37.30
2018-07-31T09:05:54.485Z,37.27
2018-07-31T09:08:20.521Z,37.25
2018-07-31T09:10:46.467Z,37.21
2018-07-31T09:13:12.484Z,37.18
2018-07-31T09:15:38.474Z,37.13
2018-07-31T09:18:04.438Z,37.07
2018-07-31T09:20:30.423Z,37.04
2018-07-31T09:22:56.380Z,36.98
2018-07-31T09:25:22.330Z,36.98
2018-07-31T09:27:48.392Z,36.95
2018-07-31T09:30:14.336Z,36.80
2018-07-31T09:32:40.287Z,36.80
2018-07-31T09:35:06.275Z,36.70
2018-07-31T09:37:32.251Z,36.73
2018-07-31T09:39:58.205Z,36.75
2018-07-31T09:42:24.154Z,36.75
2018-07-31T09:44:50.150Z,36.73
2018-07-31T09:47:16.137Z,36.71
2018-07-31T09:49:42.119Z,36.67
2018-07-31T09:52:08.102Z,36.60
2018-07-31T09:54:34.063Z,36.60
2018-07-31T09:57:00.014Z,36.60
2018-07-31T09:59:25.994Z,36.60
2018-07-31T10:01:51.976Z,36.57
2018-07-31T10:04:17.939Z,36.54
2018-07-31T10:06:43.878Z,36.51
2018-07-31T10:09:09.836Z,36.48
2018-07-31T10:11:35.794Z,36.28
2018-07-31T10:14:01.789Z,36.36
2018-07-31T10:16:27.779Z,36.33
2018-07-31T10:18:53.751Z,36.42
2018-07-31T10:21:19.778Z,36.43
2018-07-31T10:23:45.736Z,36.42
2018-07-31T10:26:11.716Z,36.36
2018-07-31T10:28:37.709Z,36.32
2018-07-31T10:31:03.755Z,36.36
2018-07-31T10:33:29.685Z,36.36
2018-07-31T10:35:55.688Z,36.28
2018-07-31T10:38:21.696Z,36.29
2018-07-31T10:40:47.662Z,36.30
2018-07-31T10:43:13.617Z,36.24
2018-07-31T10:45:39.643Z,36.25
2018-07-31T10:48:05.626Z,36.28
2018-07-31T10:50:31.666Z,36.27
2018-07-31T10:52:57.564Z,36.26
2018-07-31T10:55:23.540Z,36.25
2018-07-31T10:57:49.528Z,36.25
2018-07-31T11:00:15.476Z,36.22
2018-07-31T11:02:41.484Z,36.22
2018-07-31T11:05:07.428Z,36.20
2018-07-31T11:07:33.424Z,36.18
2018-07-31T11:09:59.378Z,36.18
2018-07-31T11:12:25.324Z,36.20
2018-07-31T11:14:51.287Z,36.22
2018-07-31T11:17:17.349Z,36.23
2018-07-31T11:19:43.331Z,36.22
2018-07-31T11:22:09.289Z,36.22
2018-07-31T11:24:35.248Z,36.06
2018-07-31T11:27:01.202Z,35.74
2018-07-31T11:29:27.193Z,35.66
2018-07-31T11:31:53.125Z,35.57
2018-07-31T11:34:19.111Z,35.43
2018-07-31T11:36:45.093Z,35.29
2018-07-31T11:39:11.058Z,35.22
2018-07-31T11:41:37.009Z,35.26
2018-07-31T11:44:02.991Z,35.23
2018-07-31T11:46:28.936Z,35.24
2018-07-31T11:48:54.889Z,35.30
2018-07-31T11:51:20.876Z,35.19
2018-07-31T11:53:46.870Z,35.09
2018-07-31T11:56:12.893Z,35.05
2018-07-31T11:58:38.847Z,34.99
2018-07-31T12:01:04.813Z,34.99
2018-07-31T12:03:30.790Z,34.98
2018-07-31T12:05:56.772Z,35.05
2018-07-31T12:08:23.817Z,35.03
2018-07-31T12:10:49.762Z,35.02
2018-07-31T12:13:15.729Z,35.02
2018-07-31T12:15:41.725Z,34.94
2018-07-31T12:18:07.715Z,35.04
2018-07-31T12:20:33.729Z,35.10
2018-07-31T12:22:59.701Z,34.98
2018-07-31T12:25:25.683Z,34.92
2018-07-31T12:27:51.637Z,34.89
2018-07-31T12:30:17.590Z,34.91
2018-07-31T12:32:43.616Z,34.96
2018-07-31T12:35:09.616Z,35.07
2018-07-31T12:37:35.576Z,35.07
2018-07-31T12:40:01.870Z,35.10
2018-07-31T12:42:27.847Z,35.08
2018-07-31T12:44:53.782Z,35.17
2018-07-31T12:47:19.901Z,35.29
2018-07-31T12:49:45.854Z,35.27
2018-07-31T12:52:11.825Z,35.07
2018-07-31T12:54:37.785Z,35.41
2018-07-31T12:57:03.735Z,35.40
2018-07-31T12:59:29.709Z,35.36
2018-07-31T13:01:55.718Z,35.35
2018-07-31T13:04:21.630Z,35.46
2018-07-31T13:06:47.582Z,35.58
2018-07-31T13:09:13.540Z,35.63
2018-07-31T13:11:39.491Z,35.65
2018-07-31T13:14:05.433Z,35.68
2018-07-31T13:16:31.381Z,35.67
2018-07-31T13:18:57.399Z,35.65
2018-07-31T13:21:23.348Z,35.67
2018-07-31T13:23:49.312Z,35.62
2018-07-31T13:26:15.280Z,35.64
2018-07-31T13:28:41.240Z,35.62
2018-07-31T13:31:07.198Z,35.60
2018-07-31T13:33:33.216Z,35.71
2018-07-31T13:38:31.482Z,35.81
2018-07-31T13:40:57.416Z,35.81
2018-07-31T13:43:23.490Z,35.83
2018-07-31T13:45:49.451Z,35.85
2018-07-31T13:48:15.473Z,35.84
2018-07-31T13:50:41.465Z,35.47
2018-07-31T13:53:07.442Z,35.83
2018-07-31T13:55:33.525Z,35.77
2018-07-31T13:57:59.543Z,35.94
2018-07-31T14:00:25.562Z,35.99
2018-07-31T14:02:51.524Z,35.97
2018-07-31T14:05:17.551Z,35.86
2018-07-31T14:07:44.544Z,35.83
2018-07-31T14:10:10.516Z,36.02
2018-07-31T14:12:36.487Z,36.04
2018-07-31T14:15:02.503Z,36.11
2018-07-31T14:17:28.469Z,36.01
2018-07-31T14:19:54.447Z,36.03
2018-07-31T14:22:20.407Z,36.08
2018-07-31T14:24:46.431Z,36.18
2018-07-31T14:27:12.400Z,36.17
2018-07-31T14:29:38.398Z,36.13
2018-07-31T14:32:04.353Z,36.11
2018-07-31T14:34:30.325Z,36.09
2018-07-31T14:39:28.764Z,36.03
2018-07-31T14:41:54.739Z,36.02
2018-07-31T14:44:20.719Z,36.02
2018-07-31T14:46:46.693Z,36.01
2018-07-31T14:49:12.668Z,36.01
2018-07-31T14:51:38.604Z,36.03
2018-07-31T14:54:04.617Z,36.02
2018-07-31T14:56:30.596Z,36.01
2018-07-31T14:58:56.721Z,36.01
2018-07-31T15:01:22.699Z,36.00
2018-07-31T15:03:48.636Z,35.99
2018-07-31T15:06:14.684Z,36.00
2018-07-31T15:08:40.679Z,36.01
2018-07-31T15:11:06.794Z,36.01
2018-07-31T15:13:34.773Z,36.03
2018-07-31T15:16:00.778Z,35.95
2018-07-31T15:18:29.013Z,36.06
2018-07-31T15:20:55.027Z,36.12
2018-07-31T15:23:22.181Z,36.13
2018-07-31T15:25:48.154Z,36.11
2018-07-31T15:28:14.119Z,36.10
2018-07-31T15:30:40.141Z,36.09
2018-07-31T15:33:06.637Z,36.07
2018-07-31T15:35:32.637Z,36.06
2018-07-31T15:37:58.623Z,36.04
2018-07-31T15:40:24.624Z,36.01
2018-07-31T15:42:50.591Z,36.09
2018-07-31T15:45:16.599Z,36.08
2018-07-31T15:47:42.644Z,36.18
2018-07-31T15:50:08.644Z,36.24
2018-07-31T15:52:34.645Z,36.19
2018-07-31T15:55:01.663Z,36.27
2018-07-31T15:57:27.670Z,36.28
2018-07-31T15:59:53.691Z,36.24
2018-07-31T16:02:19.673Z,36.34
2018-07-31T16:04:45.660Z,36.32
2018-07-31T16:09:44.320Z,36.43
2018-07-31T16:12:10.309Z,36.47
2018-07-31T16:14:36.477Z,36.45
2018-07-31T16:17:04.587Z,36.40
2018-07-31T16:19:30.614Z,36.40
2018-07-31T16:21:56.600Z,36.41
2018-07-31T16:24:22.609Z,36.41
2018-07-31T16:26:52.147Z,36.38
2018-07-31T16:29:18.113Z,36.34
2018-07-31T16:31:44.110Z,36.31
2018-07-31T16:34:10.085Z,36.28
2018-07-31T16:36:36.060Z,36.27
2018-07-31T16:39:02.047Z,36.25
2018-07-31T16:41:28.101Z,36.26
2018-07-31T16:43:54.593Z,36.25
2018-07-31T16:46:20.825Z,36.25
2018-07-31T16:48:46.816Z,36.25
2018-07-31T16:51:12.927Z,36.25
2018-07-31T16:53:38.892Z,36.26
2018-07-31T16:56:09.364Z,36.28
2018-07-31T16:58:35.408Z,36.29
2018-07-31T17:01:01.374Z,36.19
2018-07-31T17:03:27.349Z,36.21
2018-07-31T17:05:53.311Z,36.29
2018-07-31T17:08:19.280Z,36.30
2018-07-31T17:13:17.699Z,36.28
2018-07-31T17:15:43.665Z,36.30
2018-07-31T17:18:09.740Z,36.32
2018-07-31T17:20:36.264Z,36.30
2018-07-31T17:23:02.376Z,36.27
2018-07-31T17:25:28.559Z,36.33
2018-07-31T17:27:54.567Z,36.36
2018-07-31T17:30:20.541Z,36.33
2018-07-31T17:32:46.573Z,36.36
2018-07-31T17:35:12.643Z,36.23
2018-07-31T17:37:38.563Z,36.31
2018-07-31T17:40:04.540Z,36.33
2018-07-31T17:42:30.511Z,36.32
2018-07-31T17:44:56.479Z,36.35
2018-07-31T17:47:22.485Z,36.32
2018-07-31T17:49:48.582Z,36.28
2018-07-31T17:52:14.607Z,36.34
2018-07-31T17:57:19.643Z,36.21
2018-07-31T17:59:45.741Z,36.13
2018-07-31T18:02:11.770Z,36.19
2018-07-31T18:04:37.762Z,36.14
2018-07-31T18:07:03.824Z,36.19
2018-07-31T18:09:30.090Z,36.24
2018-07-31T18:11:56.437Z,36.26
2018-07-31T18:14:22.855Z,36.24
2018-07-31T18:16:48.803Z,36.23
2018-07-31T18:19:14.820Z,36.14
2018-07-31T18:21:40.863Z,36.24
2018-07-31T18:24:07.020Z,36.03
2018-07-31T18:34:08.270Z,35.89
2018-07-31T18:36:35.409Z,35.75
2018-07-31T18:39:01.578Z,35.83
2018-07-31T18:44:00.268Z,35.86
2018-07-31T18:46:37.263Z,35.93
2018-07-31T18:57:12.779Z,34.10
2018-07-31T19:03:48.924Z,34.67
2018-07-31T19:06:15.272Z,34.95
2018-07-31T19:08:42.010Z,35.17
2018-07-31T19:11:11.206Z,35.42
2018-07-31T19:13:37.400Z,35.54
2018-07-31T19:16:03.468Z,35.59
2018-07-31T19:18:32.543Z,35.64
2018-07-31T19:20:58.653Z,35.56
2018-07-31T19:23:25.324Z,35.57
2018-07-31T19:25:51.709Z,35.56
2018-07-31T19:28:18.046Z,35.50
2018-07-31T19:30:44.103Z,35.49
2018-07-31T19:33:10.795Z,35.44
2018-07-31T19:35:36.868Z,35.33
2018-07-31T19:38:04.164Z,35.31
2018-07-31T19:40:30.356Z,35.41
2018-07-31T19:42:56.391Z,35.51
2018-07-31T19:45:22.471Z,35.59
2018-07-31T19:47:48.825Z,35.62
2018-07-31T19:50:15.665Z,35.59
2018-07-31T19:52:41.788Z,35.66
2018-07-31T19:55:07.910Z,35.64
2018-07-31T19:57:36.392Z,35.61
2018-07-31T20:00:02.625Z,35.43
2018-07-31T20:02:28.729Z,35.53
2018-07-31T20:04:54.865Z,35.55
2018-07-31T20:07:22.791Z,35.53
2018-07-31T20:09:49.164Z,35.46
2018-07-31T20:12:15.772Z,35.42
2018-07-31T20:14:41.958Z,35.56
2018-07-31T20:17:08.027Z,35.57
2018-07-31T20:19:35.153Z,35.47
2018-07-31T20:22:01.274Z,35.44
2018-07-31T20:24:27.515Z,35.19
2018-07-31T20:26:53.679Z,34.85
2018-07-31T20:29:24.474Z,34.88
2018-07-31T20:31:51.377Z,34.94
2018-07-31T20:34:17.701Z,34.91
2018-07-31T20:36:45.478Z,34.76
2018-07-31T20:39:11.794Z,34.93
2018-07-31T20:41:38.100Z,34.94
2018-07-31T20:44:07.619Z,34.30
2018-07-31T20:46:33.745Z,33.96
2018-07-31T20:49:01.050Z,33.62
2018-07-31T20:51:27.113Z,33.38
2018-07-31T20:53:53.107Z,33.31
2018-07-31T20:56:19.224Z,33.21
2018-07-31T20:58:47.960Z,33.00
2018-07-31T21:01:14.037Z,33.22
2018-07-31T21:03:40.126Z,32.63
2018-07-31T21:06:06.276Z,32.06
2018-07-31T21:08:32.341Z,32.56
2018-07-31T21:10:58.315Z,33.36
2018-07-31T21:13:24.312Z,33.70
2018-07-31T21:15:50.350Z,33.60
2018-07-31T21:18:16.383Z,33.58
2018-07-31T21:20:42.407Z,33.84
2018-07-31T21:23:08.407Z,33.86
2018-07-31T21:25:34.440Z,33.87
2018-07-31T21:28:00.460Z,33.88
2018-07-31T21:30:26.455Z,33.75
2018-07-31T21:32:52.440Z,33.67
2018-07-31T21:35:18.460Z,33.46
2018-07-31T21:37:44.425Z,33.47
2018-07-31T21:40:10.407Z,33.49
2018-07-31T21:42:37.506Z,33.57
2018-07-31T21:45:03.474Z,33.45
2018-07-31T21:47:29.542Z,33.43
2018-07-31T21:49:55.495Z,33.16
2018-07-31T21:52:21.499Z,29.37
2018-07-31T21:54:50.423Z,33.11
2018-07-31T21:57:16.485Z,33.20
2018-07-31T21:59:42.547Z,33.13
2018-07-31T22:02:09.629Z,32.90
2018-07-31T22:04:35.630Z,32.85
2018-07-31T22:07:01.632Z,33.04
2018-07-31T22:09:27.632Z,33.09
2018-07-31T22:11:53.601Z,33.13
2018-07-31T22:14:19.569Z,33.07
2018-07-31T22:16:45.527Z,32.78
2018-07-31T22:19:11.508Z,32.64
2018-07-31T22:21:37.870Z,32.23
2018-07-31T22:24:03.867Z,32.37
2018-07-31T22:26:29.853Z,32.61
2018-07-31T22:28:55.802Z,32.67
2018-07-31T22:31:21.791Z,32.59
2018-07-31T22:33:47.732Z,32.57
2018-07-31T22:36:13.715Z,32.60
2018-07-31T22:38:39.703Z,32.62
2018-07-31T22:41:05.679Z,32.55
2018-07-31T22:43:31.643Z,32.56
2018-07-31T22:45:57.617Z,32.39
2018-07-31T22:48:23.563Z,32.41
2018-07-31T22:50:49.533Z,32.21
2018-07-31T22:53:15.497Z,32.30
2018-07-31T22:55:41.456Z,32.38
2018-07-31T22:58:07.536Z,32.27
2018-07-31T23:00:33.388Z,32.40
2018-07-31T23:02:59.343Z,32.47
2018-07-31T23:05:25.321Z,32.36
2018-07-31T23:07:51.361Z,32.38
2018-07-31T23:10:17.360Z,32.35
2018-07-31T23:12:43.332Z,31.66
2018-07-31T23:15:09.284Z,31.98
2018-07-31T23:17:35.257Z,32.14
2018-07-31T23:20:01.227Z,32.05
2018-07-31T23:22:27.205Z,31.79
2018-07-31T23:24:53.173Z,31.91
2018-07-31T23:27:19.133Z,31.87
2018-07-31T23:29:45.116Z,31.38
2018-07-31T23:32:11.081Z,31.55
2018-07-31T23:34:37.051Z,31.40
2018-07-31T23:37:03.030Z,31.37
2018-07-31T23:39:29.041Z,31.23
2018-07-31T23:41:55.027Z,31.32
2018-07-31T23:44:20.987Z,31.43
2018-07-31T23:46:46.960Z,31.54
2018-07-31T23:49:12.929Z,31.59
2018-07-31T23:51:38.923Z,31.70
2018-07-31T23:54:04.900Z,31.50
2018-07-31T23:56:30.861Z,30.93
2018-07-31T23:58:56.824Z,30.24
